createdAt,value
2018-01-16T00:01:53.580Z,93.40
2018-01-16T00:04:30.237Z,93.50
2018-01-16T00:07:07.769Z,93.40
2018-01-16T00:10:04.513Z,93.80
2018-01-16T00:12:41.557Z,94.30
2018-01-16T00:15:19.466Z,94.60
2018-01-16T00:17:51.886Z,94.80
2018-01-16T00:20:24.939Z,95.20
2018-01-16T00:22:57.618Z,95.20
2018-01-16T00:25:35.829Z,95.90
2018-01-16T00:28:08.098Z,95.90
2018-01-16T00:30:39.350Z,96.00
2018-01-16T00:33:09.932Z,96.40
2018-01-16T00:35:40.699Z,96.50
2018-01-16T00:38:11.057Z,96.50
2018-01-16T00:40:41.578Z,96.30
2018-01-16T00:43:12.507Z,96.30
2018-01-16T00:45:42.648Z,96.10
2018-01-16T00:48:13.485Z,95.90
2018-01-16T00:55:23.727Z,95.70
2018-01-16T00:57:53.780Z,95.70
2018-01-16T01:00:24.109Z,95.80
2018-01-16T01:04:00.253Z,96.00
2018-01-16T01:06:32.686Z,96.40
2018-01-16T01:09:05.181Z,96.70
2018-01-16T01:11:36.927Z,97.00
2018-01-16T01:14:08.533Z,97.10
2018-01-16T01:16:39.867Z,97.40
2018-01-16T01:19:11.883Z,97.50
2018-01-16T01:21:44.363Z,97.60
2018-01-16T01:24:16.583Z,97.60
2018-01-16T01:26:47.783Z,96.70
2018-01-16T01:29:18.452Z,96.60
2018-01-16T01:31:49.154Z,96.90
2018-01-16T01:34:20.012Z,96.40
2018-01-16T01:36:55.255Z,96.30
2018-01-16T01:39:25.385Z,96.30
2018-01-16T01:41:56.019Z,96.30
2018-01-16T01:44:26.498Z,96.10
2018-01-16T01:46:57.177Z,96.20
2018-01-16T01:49:27.098Z,96.10
2018-01-16T01:51:57.348Z,96.30
2018-01-16T01:54:29.217Z,96.20
2018-01-16T01:56:59.245Z,96.10
2018-01-16T01:59:30.093Z,95.80
2018-01-16T02:02:01.279Z,95.80
2018-01-16T02:04:32.180Z,95.50
2018-01-16T02:07:03.555Z,95.50
2018-01-16T02:09:34.662Z,95.20
2018-01-16T02:12:05.328Z,95.20
2018-01-16T02:14:36.664Z,95.20
2018-01-16T02:17:07.659Z,95.20
2018-01-16T02:19:37.642Z,95.20
2018-01-16T02:22:08.389Z,95.20
2018-01-16T02:24:38.483Z,95.20
2018-01-16T02:27:08.409Z,95.10
2018-01-16T02:29:39.236Z,94.90
2018-01-16T02:32:10.503Z,94.80
2018-01-16T02:34:48.178Z,94.80
2018-01-16T02:37:20.682Z,94.80
2018-01-16T02:39:52.116Z,94.60
2018-01-16T02:42:25.090Z,94.60
2018-01-16T02:44:55.838Z,94.70
2018-01-16T02:47:26.007Z,94.70
2018-01-16T02:49:57.359Z,94.70
2018-01-16T02:52:27.514Z,94.60
2018-01-16T02:54:58.599Z,94.40
2018-01-16T02:57:28.782Z,94.40
2018-01-16T02:59:58.897Z,94.30
2018-01-16T03:02:29.323Z,94.10
2018-01-16T03:04:59.182Z,94.00
2018-01-16T03:07:29.044Z,93.90
2018-01-16T03:10:00.094Z,93.70
2018-01-16T03:12:30.429Z,94.00
2018-01-16T03:15:00.338Z,93.60
2018-01-16T03:17:31.296Z,93.60
2018-01-16T03:20:06.197Z,93.40
2018-01-16T03:22:39.616Z,93.00
2018-01-16T03:25:12.687Z,92.90
2018-01-16T03:27:42.570Z,92.90
2018-01-16T03:30:21.228Z,92.50
2018-01-16T03:32:59.961Z,92.60
2018-01-16T03:35:30.092Z,92.90
2018-01-16T03:38:00.499Z,93.20
2018-01-16T03:40:30.834Z,93.20
2018-01-16T03:43:00.565Z,93.50
2018-01-16T03:45:30.959Z,93.50
2018-01-16T03:48:00.570Z,93.70
2018-01-16T03:50:30.539Z,93.70
2018-01-16T03:53:00.766Z,93.70
2018-01-16T03:55:31.236Z,93.60
2018-01-16T03:58:01.649Z,93.60
2018-01-16T04:00:31.842Z,93.30
2018-01-16T04:03:02.043Z,93.20
2018-01-16T04:05:32.758Z,92.80
2018-01-16T04:08:04.108Z,92.50
2018-01-16T04:10:34.031Z,92.50
2018-01-16T04:13:04.590Z,92.30
2018-01-16T04:15:34.495Z,92.30
2018-01-16T04:18:05.283Z,92.30
2018-01-16T04:20:35.731Z,92.60
2018-01-16T04:23:06.864Z,92.80
2018-01-16T04:25:36.705Z,92.80
2018-01-16T04:28:07.908Z,92.50
2018-01-16T04:30:38.037Z,92.40
2018-01-16T04:33:09.869Z,92.00
2018-01-16T04:35:40.094Z,92.00
2018-01-16T04:38:10.035Z,92.00
2018-01-16T04:40:40.178Z,91.80
2018-01-16T04:43:11.228Z,92.10
2018-01-16T04:45:42.920Z,92.40
2018-01-16T04:48:13.213Z,92.40
2018-01-16T04:50:44.350Z,92.60
2018-01-16T04:53:14.235Z,92.60
2018-01-16T04:55:45.004Z,92.60
2018-01-16T04:58:17.677Z,92.70
2018-01-16T05:00:50.198Z,92.70
2018-01-16T05:03:22.528Z,92.80
2018-01-16T05:05:52.552Z,93.10
2018-01-16T05:08:24.066Z,93.50
2018-01-16T05:10:53.956Z,93.50
2018-01-16T05:13:24.746Z,93.70
2018-01-16T05:15:59.789Z,93.90
2018-01-16T05:18:31.399Z,94.00
2018-01-16T05:21:03.396Z,94.00
2018-01-16T05:23:34.816Z,94.00
2018-01-16T05:26:07.567Z,94.10
2018-01-16T05:28:39.065Z,94.20
2018-01-16T05:31:09.460Z,94.30
2018-01-16T05:33:40.666Z,94.20
2018-01-16T05:36:13.238Z,94.20
2018-01-16T05:38:43.818Z,94.30
2018-01-16T05:41:16.287Z,94.40
2018-01-16T05:43:46.219Z,94.40
2018-01-16T05:46:18.713Z,94.40
2018-01-16T05:48:48.627Z,94.20
2018-01-16T05:51:18.406Z,94.20
2018-01-16T05:53:49.385Z,94.20
2018-01-16T05:56:19.569Z,94.20
2018-01-16T05:58:52.262Z,94.20
2018-01-16T06:01:35.308Z,94.30
2018-01-16T06:04:23.238Z,94.40
2018-01-16T06:06:54.645Z,94.40
2018-01-16T06:09:26.811Z,94.20
2018-01-16T06:11:57.497Z,94.00
2018-01-16T06:14:41.041Z,93.90
2018-01-16T06:17:12.018Z,93.90
2018-01-16T06:19:44.960Z,93.50
2018-01-16T06:22:16.451Z,93.50
2018-01-16T06:24:48.215Z,93.40
2018-01-16T06:27:19.418Z,93.30
2018-01-16T06:30:06.024Z,93.30
2018-01-16T06:32:37.104Z,93.00
2018-01-16T06:35:10.911Z,92.90
2018-01-16T06:37:41.949Z,92.50
2018-01-16T06:40:12.618Z,92.70
2018-01-16T06:42:43.902Z,92.50
2018-01-16T06:45:14.252Z,92.70
2018-01-16T06:47:44.533Z,92.60
2018-01-16T06:50:18.344Z,92.90
2018-01-16T06:52:57.244Z,92.90
2018-01-16T06:55:34.583Z,93.30
2018-01-16T06:58:09.223Z,94.10
2018-01-16T07:00:39.824Z,94.40
2018-01-16T07:03:10.207Z,94.80
2018-01-16T07:05:44.729Z,94.80
2018-01-16T07:08:15.470Z,95.10
2018-01-16T07:10:45.270Z,95.10
2018-01-16T07:13:15.370Z,95.30
2018-01-16T07:15:46.214Z,95.30
2018-01-16T07:18:16.116Z,95.30
2018-01-16T07:20:48.633Z,95.40
2018-01-16T07:23:18.979Z,95.40
2018-01-16T07:28:59.938Z,95.50
2018-01-16T07:31:30.200Z,95.20
2018-01-16T07:34:00.554Z,95.10
2018-01-16T07:36:31.940Z,94.70
2018-01-16T07:39:03.062Z,94.70
2018-01-16T07:41:33.565Z,94.90
2018-01-16T07:44:19.952Z,94.90
2018-01-16T07:47:06.159Z,94.70
2018-01-16T07:49:37.101Z,94.70
2018-01-16T07:52:07.885Z,94.50
2018-01-16T07:54:38.192Z,94.30
2018-01-16T07:57:08.595Z,94.10
2018-01-16T07:59:39.762Z,93.60
2018-01-16T08:02:12.956Z,93.20
2018-01-16T08:04:43.138Z,93.00
2018-01-16T08:07:14.695Z,92.80
2018-01-16T08:09:46.391Z,92.70
2018-01-16T08:12:21.699Z,92.60
2018-01-16T08:14:56.825Z,92.60
2018-01-16T08:17:31.849Z,92.70
2018-01-16T08:20:02.996Z,92.90
2018-01-16T08:22:33.391Z,93.60
2018-01-16T08:25:04.570Z,93.70
2018-01-16T08:27:35.351Z,93.40
2018-01-16T08:30:11.191Z,93.30
2018-01-16T08:32:41.724Z,93.30
2018-01-16T08:35:11.588Z,93.50
2018-01-16T08:37:42.460Z,93.30
2018-01-16T08:42:59.546Z,93.30
2018-01-16T08:45:29.564Z,92.90
2018-01-16T08:48:01.329Z,92.50
2018-01-16T08:50:31.621Z,92.50
2018-01-16T08:53:01.800Z,92.10
2018-01-16T08:55:32.597Z,92.00
2018-01-16T08:58:03.783Z,91.70
2018-01-16T09:00:34.391Z,91.70
2018-01-16T09:03:05.911Z,91.60
2018-01-16T09:05:36.899Z,91.30
2018-01-16T09:08:07.808Z,91.30
2018-01-16T09:10:38.315Z,91.40
2018-01-16T09:13:08.512Z,91.10
2018-01-16T09:15:39.432Z,91.40
2018-01-16T09:18:10.029Z,91.10
2018-01-16T09:20:41.567Z,90.40
2018-01-16T09:23:12.769Z,90.40
2018-01-16T09:25:50.007Z,90.20
2018-01-16T09:28:31.412Z,90.20
2018-01-16T09:31:02.670Z,90.00
2018-01-16T09:33:45.187Z,89.20
2018-01-16T09:36:15.529Z,89.40
2018-01-16T09:38:47.426Z,89.40
2018-01-16T09:41:18.355Z,87.90
2018-01-16T09:43:52.975Z,87.50
2018-01-16T09:46:23.973Z,87.50
2018-01-16T09:48:56.470Z,86.80
2018-01-16T09:51:27.040Z,86.60
2018-01-16T09:54:00.931Z,86.90
2018-01-16T09:56:37.527Z,87.10
2018-01-16T09:59:08.445Z,87.80
2018-01-16T10:01:38.949Z,87.10
2018-01-16T10:04:10.508Z,86.80
2018-01-16T10:06:41.917Z,88.20
2018-01-16T10:09:15.464Z,89.60
2018-01-16T10:11:46.743Z,89.10
2018-01-16T10:14:23.597Z,89.90
2018-01-16T10:16:55.872Z,88.10
2018-01-16T10:19:31.143Z,88.30
2018-01-16T10:22:03.932Z,87.20
2018-01-16T10:24:38.999Z,87.70
2018-01-16T10:27:12.222Z,87.70
2018-01-16T10:29:44.201Z,88.00
2018-01-16T10:32:15.214Z,87.40
2018-01-16T10:34:56.317Z,87.20
2018-01-16T10:40:11.823Z,85.90
2018-01-16T10:42:44.790Z,84.80
2018-01-16T10:45:17.198Z,83.50
2018-01-16T10:47:51.811Z,83.60
2018-01-16T10:53:35.056Z,84.70
2018-01-16T10:56:14.482Z,84.10
2018-01-16T10:58:49.009Z,84.10
2018-01-16T11:02:15.620Z,84.10
2018-01-16T11:04:55.944Z,85.20
2018-01-16T11:07:31.594Z,91.50
2018-01-16T11:10:03.050Z,91.50
2018-01-16T11:12:34.076Z,92.00
2018-01-16T11:15:09.478Z,92.70
2018-01-16T11:17:39.979Z,92.60
2018-01-16T11:20:33.054Z,91.70
2018-01-16T11:23:26.786Z,91.60
2018-01-16T11:26:02.278Z,92.50
2018-01-16T11:28:34.112Z,92.50
2018-01-16T11:31:10.186Z,92.00
2018-01-16T11:33:43.251Z,92.50
2018-01-16T11:36:48.686Z,92.20
2018-01-16T11:39:27.204Z,92.40
2018-01-16T11:41:58.764Z,92.70
2018-01-16T11:44:29.585Z,92.30
2018-01-16T11:47:00.983Z,91.90
2018-01-16T11:49:31.861Z,91.50
2018-01-16T11:52:03.690Z,91.90
2018-01-16T11:54:34.461Z,91.60
2018-01-16T11:57:08.916Z,91.20
2018-01-16T11:59:42.935Z,91.80
2018-01-16T12:02:17.419Z,92.40
2018-01-16T12:04:49.844Z,93.30
2018-01-16T12:07:49.868Z,92.60
2018-01-16T12:10:20.341Z,92.70
2018-01-16T12:12:51.189Z,92.90
2018-01-16T12:15:23.354Z,93.30
2018-01-16T12:17:55.319Z,94.40
2018-01-16T12:20:29.677Z,94.80
2018-01-16T12:23:01.085Z,95.10
2018-01-16T12:25:32.733Z,95.60
2018-01-16T12:28:13.188Z,95.80
2018-01-16T12:30:53.654Z,95.60
2018-01-16T12:33:25.421Z,95.40
2018-01-16T12:36:04.431Z,95.90
2018-01-16T12:38:38.050Z,95.50
2018-01-16T12:41:15.884Z,95.20
2018-01-16T12:43:54.131Z,94.50
2018-01-16T12:46:25.855Z,94.90
2018-01-16T12:49:00.021Z,94.90
2018-01-16T12:51:32.811Z,95.90
2018-01-16T12:54:07.238Z,96.30
2018-01-16T12:56:38.576Z,95.90
2018-01-16T12:59:10.149Z,95.90
2018-01-16T13:01:49.742Z,95.50
2018-01-16T13:07:48.148Z,95.10
2018-01-16T13:15:58.238Z,95.40
2018-01-16T13:18:42.587Z,95.30
2018-01-16T13:21:25.037Z,95.50
2018-01-16T13:23:58.703Z,95.40
2018-01-16T13:26:42.372Z,95.60
2018-01-16T13:29:15.837Z,95.40
2018-01-16T13:32:15.137Z,95.40
2018-01-16T13:34:51.625Z,95.10
2018-01-16T13:37:30.603Z,94.80
2018-01-16T13:42:53.292Z,96.10
2018-01-16T13:45:34.219Z,95.90
2018-01-16T13:48:15.710Z,96.20
2018-01-16T13:50:50.686Z,96.60
2018-01-16T13:56:10.596Z,96.80
2018-01-16T13:58:49.980Z,95.90
2018-01-16T14:01:25.275Z,96.70
2018-01-16T14:04:03.806Z,96.50
2018-01-16T14:06:35.318Z,94.60
2018-01-16T14:09:09.918Z,94.20
2018-01-16T14:11:48.874Z,94.20
2018-01-16T14:14:31.238Z,94.40
2018-01-16T14:17:17.472Z,94.30
2018-01-16T14:23:12.001Z,92.00
2018-01-16T14:25:47.627Z,88.50
2018-01-16T14:28:36.020Z,87.60
2018-01-16T14:31:11.834Z,86.00
2018-01-16T14:33:45.514Z,85.40
2018-01-16T14:36:21.093Z,85.80
2018-01-16T14:38:59.705Z,89.40
2018-01-16T14:41:38.152Z,91.50
2018-01-16T14:46:54.587Z,92.70
2018-01-16T14:49:32.442Z,93.00
2018-01-16T14:52:07.278Z,93.20
2018-01-16T14:55:09.529Z,93.50
2018-01-16T14:57:49.690Z,93.90
2018-01-16T15:00:31.165Z,93.70
2018-01-16T15:03:13.634Z,94.10
2018-01-16T15:05:44.844Z,94.40
2018-01-16T15:08:20.375Z,94.30
2018-01-16T15:10:51.945Z,93.00
2018-01-16T15:13:22.790Z,93.00
2018-01-16T15:15:59.649Z,93.50
2018-01-16T15:21:16.764Z,93.60
2018-01-16T15:23:55.312Z,94.00
2018-01-16T15:26:31.189Z,94.20
2018-01-16T15:29:03.472Z,94.70
2018-01-16T15:31:34.921Z,94.70
2018-01-16T15:34:07.063Z,94.90
2018-01-16T15:40:47.192Z,94.60
2018-01-16T15:43:19.389Z,94.60
2018-01-16T15:45:53.578Z,94.80
2018-01-16T15:48:33.973Z,93.60
2018-01-16T15:51:12.409Z,93.50
2018-01-16T15:53:45.724Z,93.50
2018-01-16T15:56:19.853Z,93.10
2018-01-16T15:58:59.232Z,94.40
2018-01-16T16:01:33.309Z,94.40
2018-01-16T16:04:19.207Z,94.50
2018-01-16T16:07:07.393Z,93.70
2018-01-16T16:09:48.999Z,93.90
2018-01-16T16:15:14.367Z,93.80
2018-01-16T16:17:55.782Z,93.80
2018-01-16T16:20:42.343Z,93.80
2018-01-16T16:23:32.833Z,93.80
2018-01-16T16:26:09.710Z,93.50
2018-01-16T16:28:41.469Z,93.40
2018-01-16T16:31:21.165Z,93.50
2018-01-16T16:33:53.991Z,92.90
2018-01-16T16:36:31.266Z,93.40
2018-01-16T16:39:07.235Z,92.90
2018-01-16T16:41:56.311Z,93.20
2018-01-16T16:44:50.051Z,93.10
2018-01-16T16:47:27.714Z,92.70
2018-01-16T16:50:04.541Z,92.90
2018-01-16T16:52:46.433Z,93.00
2018-01-16T16:55:29.116Z,93.20
2018-01-16T17:04:31.362Z,92.60
2018-01-16T17:07:06.275Z,92.60
2018-01-16T17:13:00.638Z,92.00
2018-01-16T17:15:33.373Z,92.20
2018-01-16T17:18:19.918Z,92.10
2018-01-16T17:21:01.119Z,92.10
2018-01-16T17:23:40.143Z,92.10
2018-01-16T17:26:12.785Z,92.30
2018-01-16T17:29:02.053Z,92.10
2018-01-16T17:31:33.581Z,92.00
2018-01-16T17:34:41.866Z,91.60
2018-01-16T17:40:37.158Z,91.60
2018-01-16T17:43:11.803Z,92.80
2018-01-16T17:45:57.473Z,93.00
2018-01-16T17:48:35.520Z,93.20
2018-01-16T17:51:13.045Z,94.00
2018-01-16T17:53:49.601Z,93.80
2018-01-16T17:59:11.875Z,94.10
2018-01-16T18:01:47.204Z,93.30
2018-01-16T18:04:21.442Z,93.90
2018-01-16T18:06:57.479Z,93.90
2018-01-16T18:12:28.738Z,93.80
2018-01-16T18:15:04.496Z,93.70
2018-01-16T18:18:09.771Z,93.70
2018-01-16T18:20:44.658Z,93.50
2018-01-16T18:26:02.822Z,93.30
2018-01-16T18:28:50.026Z,93.50
2018-01-16T18:31:44.754Z,93.30
2018-01-16T18:38:59.736Z,93.10
2018-01-16T18:41:43.038Z,93.30
2018-01-16T18:47:21.652Z,92.50
2018-01-16T18:50:21.458Z,92.80
2018-01-16T18:53:13.602Z,92.50
2018-01-16T18:55:49.804Z,92.50
2018-01-16T18:58:35.993Z,92.60
2018-01-16T19:01:14.839Z,92.60
2018-01-16T19:03:48.997Z,92.20
2018-01-16T19:06:39.762Z,92.60
2018-01-16T19:09:11.624Z,93.00
2018-01-16T19:20:50.530Z,92.50
2018-01-16T19:26:43.993Z,92.50
2018-01-16T19:29:32.734Z,92.30
2018-01-16T19:32:10.831Z,92.30
2018-01-16T19:34:56.329Z,92.60
2018-01-16T19:37:43.994Z,92.40
2018-01-16T19:41:00.167Z,92.40
2018-01-16T19:47:11.061Z,91.80
2018-01-16T19:50:24.805Z,92.00
2018-01-16T19:56:09.235Z,92.60
2018-01-16T20:01:39.926Z,93.20
2018-01-16T20:04:42.514Z,92.70
2018-01-16T20:07:31.970Z,93.00
2018-01-16T20:10:08.810Z,93.00
2018-01-16T20:12:42.226Z,93.50
2018-01-16T20:15:19.721Z,93.40
2018-01-16T20:17:52.357Z,93.80
2018-01-16T20:20:29.030Z,93.10
2018-01-16T20:25:54.703Z,93.40
2018-01-16T20:28:27.276Z,92.90
2018-01-16T20:31:00.667Z,92.90
2018-01-16T20:33:32.864Z,92.80
2018-01-16T20:36:10.471Z,92.60
2018-01-16T20:38:45.904Z,92.50
2018-01-16T20:41:22.370Z,92.50
2018-01-16T20:44:03.278Z,92.40
2018-01-16T20:46:36.151Z,92.60
2018-01-16T20:49:11.589Z,92.30
2018-01-16T20:51:45.675Z,92.40
2018-01-16T20:54:20.992Z,92.30
2018-01-16T20:57:07.291Z,92.20
2018-01-16T20:59:43.434Z,92.10
2018-01-16T21:02:24.036Z,92.10
2018-01-16T21:05:05.140Z,92.20
2018-01-16T21:08:03.590Z,92.50
2018-01-16T21:10:40.319Z,92.60
2018-01-16T21:13:10.727Z,92.50
2018-01-16T21:15:41.852Z,92.40
2018-01-16T21:18:14.572Z,92.50
2018-01-16T21:20:47.272Z,92.70
2018-01-16T21:23:19.900Z,92.70
2018-01-16T21:26:00.906Z,92.50
2018-01-16T21:28:39.321Z,92.40
2018-01-16T21:31:22.496Z,92.40
2018-01-16T21:34:15.212Z,92.10
2018-01-16T21:36:49.967Z,92.30
2018-01-16T21:39:26.663Z,92.70
2018-01-16T21:42:00.604Z,92.50
2018-01-16T21:44:36.469Z,92.70
2018-01-16T21:47:11.546Z,92.90
2018-01-16T21:49:42.481Z,92.80
2018-01-16T21:52:22.464Z,92.80
2018-01-16T21:55:03.740Z,92.40
2018-01-16T21:57:36.369Z,92.10
2018-01-16T22:00:15.083Z,92.40
2018-01-16T22:02:47.993Z,92.00
2018-01-16T22:05:20.187Z,92.00
2018-01-16T22:07:53.201Z,92.00
2018-01-16T22:10:29.500Z,91.90
2018-01-16T22:13:12.748Z,91.90
2018-01-16T22:15:49.832Z,91.90
2018-01-16T22:18:21.461Z,92.00
2018-01-16T22:20:52.901Z,91.30
2018-01-16T22:23:23.982Z,91.10
2018-01-16T22:25:57.435Z,91.20
2018-01-16T22:28:30.227Z,90.60
2018-01-16T22:31:04.361Z,90.40
2018-01-16T22:33:42.461Z,90.40
2018-01-16T22:36:14.933Z,90.10
2018-01-16T22:38:53.506Z,90.10
2018-01-16T22:41:24.328Z,90.20
2018-01-16T22:43:59.959Z,90.20
2018-01-16T22:46:35.893Z,90.20
2018-01-16T22:54:20.736Z,90.20
2018-01-16T22:56:51.674Z,89.40
2018-01-16T22:59:26.839Z,89.20
2018-01-16T23:02:03.737Z,88.10
2018-01-16T23:04:45.022Z,88.30
2018-01-16T23:10:08.402Z,88.90
2018-01-16T23:12:39.723Z,89.40
2018-01-16T23:15:15.063Z,90.00
2018-01-16T23:17:53.286Z,90.10
2018-01-16T23:20:56.117Z,90.20
2018-01-16T23:23:30.222Z,90.10
2018-01-16T23:26:04.574Z,90.40
2018-01-16T23:28:47.541Z,90.20
2018-01-16T23:31:33.766Z,90.20
2018-01-16T23:40:30.781Z,90.50
2018-01-16T23:43:15.458Z,90.50
2018-01-16T23:46:05.783Z,90.50
2018-01-16T23:48:41.894Z,90.90
2018-01-16T23:53:52.414Z,91.00
2018-01-16T23:56:25.828Z,91.10
2018-01-16T23:58:58.144Z,91.10
